Terminal Aerodrome Forecast
Issued by NWS

Home | Current Version | Previous Version | Text Only | Print | Product List | Glossary On
Versions: 1 2 3 4 5 6 7 8 9 10 11 12
000
FTUS45 KPSR 262320
TAFSDL
TAF
KSDL 262320Z 2700/2724 24006KT P6SM FEW100 SCT250
     FM270300 VRB03KT P6SM FEW150 SCT250
     FM271900 24009KT P6SM SCT100 BKN200=

USA.gov is the U.S. government's official web portal to all federal, state and local government web resources and services.